Donald, Washington
Current Conditions -  °F | °C
As of 12:53 PM on Friday 28 Nov 2014 (Local Time) from KYKM Reporting Station
Broken Clouds Broken Clouds  
Wind Chill: 63°   Ceiling: 10000
Heat Index: 63°   Visibility: 10mi
Dew Point: 45°   Wind: 17mph
Humidity: 52%   Direction: 200°SSW
Pressure: 29.39"   Gusts: NA
Location:  46.4639°N, 120.412°W
Report Text: KYKM 282053Z 20015KT 10SM SCT060 BKN100 17/07 A2939 RMK AO2 PRESFR SLP947 T01720072 58029
Loading
Personal Weather Stations






























Interactive Weather Map New forecast layout! Learn more

10-Day Weather Forecast

Advertisements
Track Severe Weather on mobile